METAR Data
IDs: Format: Raw Decoded Include TAF

Data at: 0241 UTC 29 Nov 2020

METAR for:KCBF (Council Bluffs Muni, IA, US)
Text:KCBF 290235Z AUTO 20008KT 10SM CLR 08/M00 A2997 RMK AO2
Temperature: 8.0°C ( 46°F)
Dewpoint: 0.0°C ( 32°F) [RH = 57%]
Pressure (altimeter):29.97 inches Hg (1015.0 mb)
Winds:from the SSW (200 degrees) at 9 MPH (8 knots; 4.1 m/s)
Visibility:10 or more sm (16+ km)
Ceiling:at least 12,000 feet AGL
Clouds:sky clear below 12,000 feet AGL
QC Flag:automated observation with no human augmentation